sensor_id;sensor_type;location;lat;lon;timestamp;pressure;altitude;pressure_sealevel;temperature;humidity
13029;BME280;6581;42.662;23.402;2023-05-01T00:00:15;95300.84;;;11.42;100.00
13029;BME280;6581;42.662;23.402;2023-05-01T00:02:46;95301.25;;;11.44;100.00
13029;BME280;6581;42.662;23.402;2023-05-01T00:05:14;95301.53;;;11.35;100.00
13029;BME280;6581;42.662;23.402;2023-05-01T00:07:43;95290.84;;;11.28;100.00
13029;BME280;6581;42.662;23.402;2023-05-01T00:10:10;95300.66;;;11.28;100.00
13029;BME280;6581;42.662;23.402;2023-05-01T00:12:37;95295.00;;;11.29;100.00
13029;BME280;6581;42.662;23.402;2023-05-01T00:15:07;95299.03;;;11.16;100.00
13029;BME280;6581;42.662;23.402;2023-05-01T00:17:34;95296.28;;;11.09;100.00
13029;BME280;6581;42.662;23.402;2023-05-01T00:20:25;95306.88;;;11.09;100.00
13029;BME280;6581;42.662;23.402;2023-05-01T00:22:54;95302.22;;;10.99;100.00
13029;BME280;6581;42.662;23.402;2023-05-01T00:25:22;95302.22;;;10.99;100.00
13029;BME280;6581;42.662;23.402;2023-05-01T00:27:49;95302.88;;;10.92;100.00
13029;BME280;6581;42.662;23.402;2023-05-01T00:30:16;95301.66;;;10.86;100.00
13029;BME280;6581;42.662;23.402;2023-05-01T00:32:43;95306.25;;;10.89;100.00
13029;BME280;6581;42.662;23.402;2023-05-01T00:35:10;95305.78;;;10.84;100.00
13029;BME280;6581;42.662;23.402;2023-05-01T00:37:38;95311.88;;;10.84;100.00
13029;BME280;6581;42.662;23.402;2023-05-01T00:40:07;95310.38;;;10.87;100.00
13029;BME280;6581;42.662;23.402;2023-05-01T00:42:35;95317.19;;;10.88;100.00
13029;BME280;6581;42.662;23.402;2023-05-01T00:45:05;95310.66;;;10.82;100.00
13029;BME280;6581;42.662;23.402;2023-05-01T00:47:32;95315.22;;;10.81;100.00
13029;BME280;6581;42.662;23.402;2023-05-01T00:50:26;95314.66;;;10.68;100.00
13029;BME280;6581;42.662;23.402;2023-05-01T00:52:53;95317.31;;;10.68;100.00
13029;BME280;6581;42.662;23.402;2023-05-01T00:55:22;95321.03;;;10.64;100.00
13029;BME280;6581;42.662;23.402;2023-05-01T00:57:49;95321.28;;;10.55;100.00
13029;BME280;6581;42.662;23.402;2023-05-01T01:00:16;95327.03;;;10.61;100.00
13029;BME280;6581;42.662;23.402;2023-05-01T01:02:44;95323.63;;;10.60;100.00
13029;BME280;6581;42.662;23.402;2023-05-01T01:05:14;95336.53;;;10.62;100.00
13029;BME280;6581;42.662;23.402;2023-05-01T01:07:46;95334.94;;;10.57;100.00
13029;BME280;6581;42.662;23.402;2023-05-01T01:10:22;95326.88;;;10.50;100.00
13029;BME280;6581;42.662;23.402;2023-05-01T01:13:01;95335.47;;;10.44;100.00
13029;BME280;6581;42.662;23.402;2023-05-01T01:15:38;95346.13;;;10.47;100.00
13029;BME280;6581;42.662;23.402;2023-05-01T01:18:08;95343.13;;;10.49;100.00
13029;BME280;6581;42.662;23.402;2023-05-01T01:20:43;95344.53;;;10.43;100.00
13029;BME280;6581;42.662;23.402;2023-05-01T01:33:52;95342.91;;;10.35;100.00
13029;BME280;6581;42.662;23.402;2023-05-01T01:36:31;95351.97;;;10.34;100.00
13029;BME280;6581;42.662;23.402;2023-05-01T01:39:07;95359.13;;;10.33;100.00
13029;BME280;6581;42.662;23.402;2023-05-01T01:41:37;95350.03;;;10.31;100.00
13029;BME280;6581;42.662;23.402;2023-05-01T01:44:08;95354.13;;;10.28;100.00
13029;BME280;6581;42.662;23.402;2023-05-01T01:46:40;95355.41;;;10.15;100.00
13029;BME280;6581;42.662;23.402;2023-05-01T01:49:13;95346.28;;;10.12;100.00
13029;BME280;6581;42.662;23.402;2023-05-01T01:51:42;95344.81;;;10.15;100.00
13029;BME280;6581;42.662;23.402;2023-05-01T01:54:14;95348.16;;;10.12;100.00
13029;BME280;6581;42.662;23.402;2023-05-01T01:56:45;95339.69;;;10.03;100.00
13029;BME280;6581;42.662;23.402;2023-05-01T01:59:12;95337.88;;;10.07;100.00
13029;BME280;6581;42.662;23.402;2023-05-01T02:01:42;95333.63;;;10.02;100.00
13029;BME280;6581;42.662;23.402;2023-05-01T02:04:12;95337.81;;;10.03;100.00
13029;BME280;6581;42.662;23.402;2023-05-01T02:06:42;95349.84;;;10.01;100.00
13029;BME280;6581;42.662;23.402;2023-05-01T02:09:11;95351.97;;;9.92;100.00
13029;BME280;6581;42.662;23.402;2023-05-01T02:11:39;95348.25;;;9.96;100.00
13029;BME280;6581;42.662;23.402;2023-05-01T02:14:07;95349.25;;;9.88;100.00
13029;BME280;6581;42.662;23.402;2023-05-01T02:16:36;95344.13;;;9.76;100.00
13029;BME280;6581;42.662;23.402;2023-05-01T02:19:04;95350.25;;;9.80;100.00
13029;BME280;6581;42.662;23.402;2023-05-01T02:21:59;95347.50;;;9.76;100.00
13029;BME280;6581;42.662;23.402;2023-05-01T02:24:28;95342.16;;;9.73;100.00
13029;BME280;6581;42.662;23.402;2023-05-01T02:26:59;95344.88;;;9.76;100.00
13029;BME280;6581;42.662;23.402;2023-05-01T02:29:29;95346.41;;;9.77;100.00
13029;BME280;6581;42.662;23.402;2023-05-01T02:31:56;95345.13;;;9.91;100.00
13029;BME280;6581;42.662;23.402;2023-05-01T02:34:23;95345.91;;;9.91;100.00
13029;BME280;6581;42.662;23.402;2023-05-01T02:36:50;95343.47;;;9.83;100.00
13029;BME280;6581;42.662;23.402;2023-05-01T02:39:19;95344.59;;;9.82;100.00
13029;BME280;6581;42.662;23.402;2023-05-01T02:41:47;95332.41;;;9.77;100.00
13029;BME280;6581;42.662;23.402;2023-05-01T02:44:15;95345.19;;;9.71;100.00
13029;BME280;6581;42.662;23.402;2023-05-01T02:46:45;95340.44;;;9.81;100.00
13029;BME280;6581;42.662;23.402;2023-05-01T02:49:15;95342.94;;;9.73;100.00
13029;BME280;6581;42.662;23.402;2023-05-01T02:51:45;95347.50;;;9.76;100.00
13029;BME280;6581;42.662;23.402;2023-05-01T02:54:12;95348.44;;;9.65;100.00
13029;BME280;6581;42.662;23.402;2023-05-01T02:56:43;95347.66;;;9.64;100.00
13029;BME280;6581;42.662;23.402;2023-05-01T02:59:10;95351.84;;;9.65;100.00
13029;BME280;6581;42.662;23.402;2023-05-01T03:01:37;95348.38;;;9.61;100.00
13029;BME280;6581;42.662;23.402;2023-05-01T03:04:04;95358.19;;;9.61;100.00
13029;BME280;6581;42.662;23.402;2023-05-01T03:06:31;95356.16;;;9.54;100.00
13029;BME280;6581;42.662;23.402;2023-05-01T03:08:58;95369.31;;;9.51;100.00
13029;BME280;6581;42.662;23.402;2023-05-01T03:11:26;95373.44;;;9.48;100.00
13029;BME280;6581;42.662;23.402;2023-05-01T03:13:54;95368.69;;;9.38;100.00
13029;BME280;6581;42.662;23.402;2023-05-01T03:16:21;95373.75;;;9.27;100.00
13029;BME280;6581;42.662;23.402;2023-05-01T03:18:49;95371.75;;;9.21;100.00
13029;BME280;6581;42.662;23.402;2023-05-01T03:21:16;95371.75;;;9.21;100.00
13029;BME280;6581;42.662;23.402;2023-05-01T03:23:43;95363.97;;;9.12;100.00
13029;BME280;6581;42.662;23.402;2023-05-01T03:26:10;95370.72;;;9.10;100.00
13029;BME280;6581;42.662;23.402;2023-05-01T03:28:38;95381.25;;;8.90;100.00
13029;BME280;6581;42.662;23.402;2023-05-01T03:31:07;95385.19;;;8.81;100.00
13029;BME280;6581;42.662;23.402;2023-05-01T03:33:35;95376.50;;;8.80;100.00
13029;BME280;6581;42.662;23.402;2023-05-01T03:36:03;95380.75;;;8.85;100.00
13029;BME280;6581;42.662;23.402;2023-05-01T03:38:32;95380.59;;;8.78;100.00
13029;BME280;6581;42.662;23.402;2023-05-01T03:42:01;95383.66;;;8.80;100.00
13029;BME280;6581;42.662;23.402;2023-05-01T03:44:35;95385.78;;;8.90;100.00
13029;BME280;6581;42.662;23.402;2023-05-01T03:47:03;95386.41;;;8.83;100.00
13029;BME280;6581;42.662;23.402;2023-05-01T03:49:31;95388.16;;;8.95;100.00
13029;BME280;6581;42.662;23.402;2023-05-01T03:51:58;95390.78;;;8.95;100.00
13029;BME280;6581;42.662;23.402;2023-05-01T03:54:25;95392.94;;;8.89;100.00
13029;BME280;6581;42.662;23.402;2023-05-01T03:56:58;95392.25;;;8.93;100.00
13029;BME280;6581;42.662;23.402;2023-05-01T03:59:25;95389.69;;;8.96;100.00
13029;BME280;6581;42.662;23.402;2023-05-01T04:01:52;95402.47;;;8.94;100.00
13029;BME280;6581;42.662;23.402;2023-05-01T04:04:21;95401.88;;;9.01;100.00
13029;BME280;6581;42.662;23.402;2023-05-01T04:07:12;95406.72;;;8.99;100.00
13029;BME280;6581;42.662;23.402;2023-05-01T04:09:40;95400.50;;;8.91;100.00
13029;BME280;6581;42.662;23.402;2023-05-01T04:12:07;95405.22;;;8.98;100.00
13029;BME280;6581;42.662;23.402;2023-05-01T04:14:34;95409.22;;;8.92;100.00
13029;BME280;6581;42.662;23.402;2023-05-01T04:17:01;95402.47;;;8.94;100.00
13029;BME280;6581;42.662;23.402;2023-05-01T04:19:33;95400.56;;;9.10;100.00
13029;BME280;6581;42.662;23.402;2023-05-01T04:22:01;95402.59;;;9.17;100.00
13029;BME280;6581;42.662;23.402;2023-05-01T04:24:30;95408.88;;;9.28;100.00
13029;BME280;6581;42.662;23.402;2023-05-01T04:27:22;95408.47;;;9.45;100.00
13029;BME280;6581;42.662;23.402;2023-05-01T04:29:50;95407.50;;;9.53;100.00
13029;BME280;6581;42.662;23.402;2023-05-01T04:32:17;95413.28;;;9.59;100.00
13029;BME280;6581;42.662;23.402;2023-05-01T04:34:46;95410.81;;;9.66;100.00
13029;BME280;6581;42.662;23.402;2023-05-01T04:37:13;95414.63;;;9.68;100.00
13029;BME280;6581;42.662;23.402;2023-05-01T04:39:42;95411.50;;;9.63;100.00
13029;BME280;6581;42.662;23.402;2023-05-01T04:42:10;95416.03;;;9.62;100.00
13029;BME280;6581;42.662;23.402;2023-05-01T04:44:37;95418.88;;;9.73;100.00
13029;BME280;6581;42.662;23.402;2023-05-01T04:47:04;95428.06;;;9.60;100.00
13029;BME280;6581;42.662;23.402;2023-05-01T04:49:32;95421.44;;;9.50;100.00
13029;BME280;6581;42.662;23.402;2023-05-01T04:52:00;95422.91;;;9.48;100.00
13029;BME280;6581;42.662;23.402;2023-05-01T04:54:38;95426.69;;;9.66;100.00
13029;BME280;6581;42.662;23.402;2023-05-01T04:57:05;95430.84;;;9.86;100.00
13029;BME280;6581;42.662;23.402;2023-05-01T04:59:33;95432.38;;;10.06;100.00
13029;BME280;6581;42.662;23.402;2023-05-01T05:02:00;95428.50;;;10.19;100.00
13029;BME280;6581;42.662;23.402;2023-05-01T05:04:51;95437.56;;;10.41;100.00
13029;BME280;6581;42.662;23.402;2023-05-01T05:07:20;95432.53;;;10.55;100.00
13029;BME280;6581;42.662;23.402;2023-05-01T05:10:07;95426.34;;;10.71;100.00
13029;BME280;6581;42.662;23.402;2023-05-01T05:12:35;95442.09;;;10.86;100.00
13029;BME280;6581;42.662;23.402;2023-05-01T05:15:26;95445.53;;;10.87;100.00
13029;BME280;6581;42.662;23.402;2023-05-01T05:17:54;95443.88;;;10.79;100.00
13029;BME280;6581;42.662;23.402;2023-05-01T05:20:21;95453.47;;;10.87;100.00
13029;BME280;6581;42.662;23.402;2023-05-01T05:22:49;95445.81;;;10.82;100.00
13029;BME280;6581;42.662;23.402;2023-05-01T05:25:22;95450.66;;;10.99;100.00
13029;BME280;6581;42.662;23.402;2023-05-01T05:27:51;95456.78;;;11.03;100.00
13029;BME280;6581;42.662;23.402;2023-05-01T05:30:43;95454.22;;;11.10;100.00
13029;BME280;6581;42.662;23.402;2023-05-01T05:33:14;95452.91;;;11.23;100.00
13029;BME280;6581;42.662;23.402;2023-05-01T05:35:41;95452.53;;;11.25;100.00
13029;BME280;6581;42.662;23.402;2023-05-01T05:38:10;95454.59;;;11.35;100.00
13029;BME280;6581;42.662;23.402;2023-05-01T05:40:39;95461.31;;;11.55;100.00
13029;BME280;6581;42.662;23.402;2023-05-01T05:43:07;95462.31;;;11.73;100.00
13029;BME280;6581;42.662;23.402;2023-05-01T05:46:00;95457.97;;;11.88;100.00
13029;BME280;6581;42.662;23.402;2023-05-01T05:48:29;95464.91;;;11.70;100.00
13029;BME280;6581;42.662;23.402;2023-05-01T05:50:56;95466.22;;;11.79;100.00
13029;BME280;6581;42.662;23.402;2023-05-01T05:53:25;95462.69;;;11.72;100.00
13029;BME280;6581;42.662;23.402;2023-05-01T05:55:53;95466.97;;;11.80;100.00
13029;BME280;6581;42.662;23.402;2023-05-01T05:58:21;95464.81;;;11.89;100.00
13029;BME280;6581;42.662;23.402;2023-05-01T06:00:50;95464.34;;;12.13;100.00
13029;BME280;6581;42.662;23.402;2023-05-01T06:03:17;95474.69;;;12.22;100.00
13029;BME280;6581;42.662;23.402;2023-05-01T06:05:45;95474.34;;;12.23;100.00
13029;BME280;6581;42.662;23.402;2023-05-01T06:08:12;95477.19;;;12.41;100.00
13029;BME280;6581;42.662;23.402;2023-05-01T06:10:42;95474.59;;;12.48;100.00
13029;BME280;6581;42.662;23.402;2023-05-01T06:13:10;95480.69;;;12.52;100.00
13029;BME280;6581;42.662;23.402;2023-05-01T06:15:40;95477.38;;;12.62;100.00
13029;BME280;6581;42.662;23.402;2023-05-01T06:18:32;95480.03;;;12.62;100.00
13029;BME280;6581;42.662;23.402;2023-05-01T06:20:59;95484.00;;;12.79;100.00
13029;BME280;6581;42.662;23.402;2023-05-01T06:23:27;95484.41;;;12.84;100.00
13029;BME280;6581;42.662;23.402;2023-05-01T06:26:19;95479.44;;;12.79;100.00
13029;BME280;6581;42.662;23.402;2023-05-01T06:28:48;95484.53;;;12.95;100.00
13029;BME280;6581;42.662;23.402;2023-05-01T06:31:40;95481.06;;;12.91;100.00
13029;BME280;6581;42.662;23.402;2023-05-01T06:34:08;95481.13;;;12.98;100.00
13029;BME280;6581;42.662;23.402;2023-05-01T06:36:50;95477.50;;;13.17;100.00
13029;BME280;6581;42.662;23.402;2023-05-01T06:39:17;95478.75;;;13.30;99.97
13029;BME280;6581;42.662;23.402;2023-05-01T06:41:46;95480.97;;;13.24;99.26
13029;BME280;6581;42.662;23.402;2023-05-01T06:44:14;95475.75;;;13.39;100.00
13029;BME280;6581;42.662;23.402;2023-05-01T06:46:41;95475.47;;;13.51;100.00
13029;BME280;6581;42.662;23.402;2023-05-01T06:49:08;95479.00;;;13.65;100.00
13029;BME280;6581;42.662;23.402;2023-05-01T06:51:36;95477.88;;;13.73;98.27
13029;BME280;6581;42.662;23.402;2023-05-01T06:54:03;95483.22;;;13.73;96.02
13029;BME280;6581;42.662;23.402;2023-05-01T06:56:31;95477.91;;;13.77;97.24
13029;BME280;6581;42.662;23.402;2023-05-01T06:59:00;95491.63;;;13.86;97.71
13029;BME280;6581;42.662;23.402;2023-05-01T07:01:28;95488.72;;;14.12;97.82
13029;BME280;6581;42.662;23.402;2023-05-01T07:03:55;95486.88;;;14.24;95.66
13029;BME280;6581;42.662;23.402;2023-05-01T07:06:22;95496.38;;;14.25;95.03
13029;BME280;6581;42.662;23.402;2023-05-01T07:08:50;95491.50;;;14.41;97.69
13029;BME280;6581;42.662;23.402;2023-05-01T07:11:17;95486.91;;;14.34;95.17
13029;BME280;6581;42.662;23.402;2023-05-01T07:13:45;95492.69;;;14.47;93.33
13029;BME280;6581;42.662;23.402;2023-05-01T07:16:13;95493.81;;;14.53;92.92
13029;BME280;6581;42.662;23.402;2023-05-01T07:18:40;95503.47;;;15.21;93.31
13029;BME280;6581;42.662;23.402;2023-05-01T07:21:32;95500.19;;;17.05;80.21
13029;BME280;6581;42.662;23.402;2023-05-01T07:24:00;95512.25;;;19.31;69.50
13029;BME280;6581;42.662;23.402;2023-05-01T07:26:27;95503.53;;;21.73;54.45
13029;BME280;6581;42.662;23.402;2023-05-01T07:28:54;95504.78;;;23.09;48.36
13029;BME280;6581;42.662;23.402;2023-05-01T07:31:23;95499.38;;;24.15;43.11
13029;BME280;6581;42.662;23.402;2023-05-01T07:33:50;95492.00;;;26.52;39.53
13029;BME280;6581;42.662;23.402;2023-05-01T07:36:17;95505.53;;;27.21;35.50
13029;BME280;6581;42.662;23.402;2023-05-01T07:38:47;95501.13;;;28.04;34.37
13029;BME280;6581;42.662;23.402;2023-05-01T07:41:14;95509.47;;;29.27;31.47
13029;BME280;6581;42.662;23.402;2023-05-01T07:43:41;95513.66;;;29.43;31.45
13029;BME280;6581;42.662;23.402;2023-05-01T07:46:09;95507.13;;;30.36;29.93
13029;BME280;6581;42.662;23.402;2023-05-01T07:48:38;95502.06;;;30.49;29.63
13029;BME280;6581;42.662;23.402;2023-05-01T07:51:05;95500.91;;;30.35;29.54
13029;BME280;6581;42.662;23.402;2023-05-01T07:53:32;95511.06;;;29.69;31.09
13029;BME280;6581;42.662;23.402;2023-05-01T07:56:06;95507.81;;;29.50;30.06
13029;BME280;6581;42.662;23.402;2023-05-01T07:58:34;95509.38;;;29.36;29.79
13029;BME280;6581;42.662;23.402;2023-05-01T08:01:02;95508.81;;;29.87;29.00
13029;BME280;6581;42.662;23.402;2023-05-01T08:03:29;95504.91;;;30.14;28.31
13029;BME280;6581;42.662;23.402;2023-05-01T08:05:58;95496.63;;;30.29;28.88
13029;BME280;6581;42.662;23.402;2023-05-01T08:08:25;95503.31;;;30.74;27.71
13029;BME280;6581;42.662;23.402;2023-05-01T08:10:53;95503.47;;;31.64;27.09
13029;BME280;6581;42.662;23.402;2023-05-01T08:13:20;95504.72;;;31.63;27.12
13029;BME280;6581;42.662;23.402;2023-05-01T08:15:47;95504.56;;;28.05;31.12
13029;BME280;6581;42.662;23.402;2023-05-01T08:18:15;95497.91;;;26.41;34.44
13029;BME280;6581;42.662;23.402;2023-05-01T08:20:45;95498.44;;;25.54;35.01
13029;BME280;6581;42.662;23.402;2023-05-01T08:23:15;95492.25;;;24.74;37.01
13029;BME280;6581;42.662;23.402;2023-05-01T08:25:42;95491.72;;;23.45;39.31
13029;BME280;6581;42.662;23.402;2023-05-01T08:28:12;95495.41;;;22.46;40.74
13029;BME280;6581;42.662;23.402;2023-05-01T08:30:39;95489.97;;;21.60;46.32
13029;BME280;6581;42.662;23.402;2023-05-01T08:33:06;95494.88;;;21.33;46.59
13029;BME280;6581;42.662;23.402;2023-05-01T08:35:33;95492.00;;;21.07;48.04
13029;BME280;6581;42.662;23.402;2023-05-01T08:38:00;95492.47;;;20.50;50.92
13029;BME280;6581;42.662;23.402;2023-05-01T08:40:31;95494.56;;;19.80;50.38
13029;BME280;6581;42.662;23.402;2023-05-01T08:42:59;95493.06;;;19.56;45.97
13029;BME280;6581;42.662;23.402;2023-05-01T08:45:28;95493.25;;;19.45;49.99
13029;BME280;6581;42.662;23.402;2023-05-01T08:48:04;95482.25;;;19.59;51.29
13029;BME280;6581;42.662;23.402;2023-05-01T08:50:32;95490.78;;;19.77;49.33
13029;BME280;6581;42.662;23.402;2023-05-01T08:53:01;95488.88;;;19.55;49.87
13029;BME280;6581;42.662;23.402;2023-05-01T08:55:31;95491.66;;;19.24;49.73
13029;BME280;6581;42.662;23.402;2023-05-01T08:58:00;95488.47;;;19.06;50.78
13029;BME280;6581;42.662;23.402;2023-05-01T09:00:28;95481.03;;;18.90;51.84
13029;BME280;6581;42.662;23.402;2023-05-01T09:02:59;95480.84;;;18.78;51.01
13029;BME280;6581;42.662;23.402;2023-05-01T09:05:31;95475.56;;;18.71;55.97
13029;BME280;6581;42.662;23.402;2023-05-01T09:07:59;95477.75;;;19.06;55.38
13029;BME280;6581;42.662;23.402;2023-05-01T09:10:26;95484.81;;;19.20;52.12
13029;BME280;6581;42.662;23.402;2023-05-01T09:12:56;95473.13;;;18.80;50.91
13029;BME280;6581;42.662;23.402;2023-05-01T09:15:27;95477.84;;;18.72;50.94
13029;BME280;6581;42.662;23.402;2023-05-01T09:17:55;95478.34;;;18.90;51.86
13029;BME280;6581;42.662;23.402;2023-05-01T09:20:23;95477.28;;;18.84;49.92
13029;BME280;6581;42.662;23.402;2023-05-01T09:22:51;95475.53;;;18.74;52.99
13029;BME280;6581;42.662;23.402;2023-05-01T09:25:18;95479.44;;;18.93;52.94
13029;BME280;6581;42.662;23.402;2023-05-01T09:27:46;95470.63;;;19.19;52.66
13029;BME280;6581;42.662;23.402;2023-05-01T09:33:08;95471.09;;;19.84;49.43
13029;BME280;6581;42.662;23.402;2023-05-01T09:35:48;95467.97;;;20.25;48.33
13029;BME280;6581;42.662;23.402;2023-05-01T09:38:17;95469.06;;;20.27;48.22
13029;BME280;6581;42.662;23.402;2023-05-01T09:40:45;95474.13;;;20.25;45.94
13029;BME280;6581;42.662;23.402;2023-05-01T09:43:12;95481.50;;;19.59;49.79
13029;BME280;6581;42.662;23.402;2023-05-01T09:45:41;95474.25;;;19.32;48.07
13029;BME280;6581;42.662;23.402;2023-05-01T09:48:10;95483.06;;;19.33;48.99
13029;BME280;6581;42.662;23.402;2023-05-01T09:50:38;95475.56;;;19.48;48.07
13029;BME280;6581;42.662;23.402;2023-05-01T09:53:06;95462.44;;;19.73;45.67
13029;BME280;6581;42.662;23.402;2023-05-01T09:55:35;95465.75;;;19.80;48.92
13029;BME280;6581;42.662;23.402;2023-05-01T09:58:05;95466.97;;;19.76;49.76
13029;BME280;6581;42.662;23.402;2023-05-01T10:00:46;95464.53;;;19.62;46.35
13029;BME280;6581;42.662;23.402;2023-05-01T10:03:15;95466.22;;;19.56;49.18
13029;BME280;6581;42.662;23.402;2023-05-01T10:05:42;95453.00;;;19.65;50.92
13029;BME280;6581;42.662;23.402;2023-05-01T10:08:10;95459.47;;;19.67;51.87
13029;BME280;6581;42.662;23.402;2023-05-01T10:10:40;95458.38;;;19.65;50.12
13029;BME280;6581;42.662;23.402;2023-05-01T10:13:15;95459.59;;;19.37;47.77
13029;BME280;6581;42.662;23.402;2023-05-01T10:15:43;95455.56;;;19.48;49.56
13029;BME280;6581;42.662;23.402;2023-05-01T10:18:11;95458.00;;;19.39;45.38
13029;BME280;6581;42.662;23.402;2023-05-01T10:20:41;95461.13;;;19.38;45.40
13029;BME280;6581;42.662;23.402;2023-05-01T10:23:09;95443.78;;;19.42;50.29
13029;BME280;6581;42.662;23.402;2023-05-01T10:25:36;95450.72;;;19.63;48.80
13029;BME280;6581;42.662;23.402;2023-05-01T10:28:05;95446.47;;;19.66;47.61
13029;BME280;6581;42.662;23.402;2023-05-01T10:30:34;95450.78;;;19.60;46.41
13029;BME280;6581;42.662;23.402;2023-05-01T10:33:02;95448.97;;;19.53;44.12
13029;BME280;6581;42.662;23.402;2023-05-01T10:35:32;95448.44;;;19.62;44.51
13029;BME280;6581;42.662;23.402;2023-05-01T10:38:04;95437.78;;;19.98;44.46
13029;BME280;6581;42.662;23.402;2023-05-01T10:40:46;95437.44;;;19.96;45.20
13029;BME280;6581;42.662;23.402;2023-05-01T10:43:15;95442.66;;;20.22;41.07
13029;BME280;6581;42.662;23.402;2023-05-01T10:45:43;95446.94;;;20.20;43.93
13029;BME280;6581;42.662;23.402;2023-05-01T10:48:10;95450.59;;;19.90;45.09
13029;BME280;6581;42.662;23.402;2023-05-01T10:51:08;95455.41;;;19.59;46.49
13029;BME280;6581;42.662;23.402;2023-05-01T10:53:37;95457.56;;;19.44;49.01
13029;BME280;6581;42.662;23.402;2023-05-01T10:56:05;95446.75;;;19.48;48.01
13029;BME280;6581;42.662;23.402;2023-05-01T10:58:56;95452.47;;;19.50;47.08
13029;BME280;6581;42.662;23.402;2023-05-01T11:01:28;95445.19;;;19.51;48.70
13029;BME280;6581;42.662;23.402;2023-05-01T11:03:57;95435.63;;;19.69;46.74
13029;BME280;6581;42.662;23.402;2023-05-01T11:06:24;95437.31;;;19.83;45.59
13029;BME280;6581;42.662;23.402;2023-05-01T11:08:53;95422.81;;;19.97;43.82
13029;BME280;6581;42.662;23.402;2023-05-01T11:11:46;95438.53;;;20.18;42.73
13029;BME280;6581;42.662;23.402;2023-05-01T11:14:16;95445.50;;;20.35;41.26
13029;BME280;6581;42.662;23.402;2023-05-01T11:16:44;95433.78;;;20.06;43.76
13029;BME280;6581;42.662;23.402;2023-05-01T11:19:44;95438.19;;;19.96;42.60
13029;BME280;6581;42.662;23.402;2023-05-01T11:22:14;95438.25;;;19.73;42.20
13029;BME280;6581;42.662;23.402;2023-05-01T11:24:42;95440.41;;;20.01;44.11
13029;BME280;6581;42.662;23.402;2023-05-01T11:27:34;95430.97;;;20.32;43.22
13029;BME280;6581;42.662;23.402;2023-05-01T11:30:02;95436.53;;;20.94;41.81
13029;BME280;6581;42.662;23.402;2023-05-01T11:32:29;95432.47;;;21.50;41.05
13029;BME280;6581;42.662;23.402;2023-05-01T11:34:56;95445.03;;;21.86;40.24
13029;BME280;6581;42.662;23.402;2023-05-01T11:37:40;95439.53;;;22.18;38.46
13029;BME280;6581;42.662;23.402;2023-05-01T11:40:20;95437.59;;;22.19;39.60
13029;BME280;6581;42.662;23.402;2023-05-01T11:42:47;95436.78;;;22.47;38.75
13029;BME280;6581;42.662;23.402;2023-05-01T11:45:39;95436.25;;;22.65;39.10
13029;BME280;6581;42.662;23.402;2023-05-01T11:48:32;95434.13;;;22.97;37.43
13029;BME280;6581;42.662;23.402;2023-05-01T11:51:11;95442.84;;;23.02;36.16
13029;BME280;6581;42.662;23.402;2023-05-01T11:53:38;95441.03;;;22.98;35.64
13029;BME280;6581;42.662;23.402;2023-05-01T11:56:18;95438.34;;;22.98;35.62
13029;BME280;6581;42.662;23.402;2023-05-01T11:58:46;95443.84;;;23.08;35.52
13029;BME280;6581;42.662;23.402;2023-05-01T12:01:13;95444.06;;;22.75;34.92
13029;BME280;6581;42.662;23.402;2023-05-01T12:03:43;95440.25;;;22.47;35.05
13029;BME280;6581;42.662;23.402;2023-05-01T12:06:35;95439.69;;;22.27;34.53
13029;BME280;6581;42.662;23.402;2023-05-01T12:09:05;95445.56;;;22.09;35.65
13029;BME280;6581;42.662;23.402;2023-05-01T12:11:35;95446.69;;;22.25;36.32
13029;BME280;6581;42.662;23.402;2023-05-01T12:14:02;95450.44;;;22.15;36.29
13029;BME280;6581;42.662;23.402;2023-05-01T12:16:30;95465.09;;;22.14;35.59
13029;BME280;6581;42.662;23.402;2023-05-01T12:18:57;95464.41;;;21.97;35.45
13029;BME280;6581;42.662;23.402;2023-05-01T12:21:24;95467.78;;;21.85;35.60
13029;BME280;6581;42.662;23.402;2023-05-01T12:23:52;95465.25;;;21.78;36.53
13029;BME280;6581;42.662;23.402;2023-05-01T12:26:23;95469.88;;;21.48;36.24
13029;BME280;6581;42.662;23.402;2023-05-01T12:28:56;95467.81;;;21.04;37.01
13029;BME280;6581;42.662;23.402;2023-05-01T12:31:25;95465.75;;;21.11;37.39
13029;BME280;6581;42.662;23.402;2023-05-01T12:33:53;95465.03;;;20.91;37.82
13029;BME280;6581;42.662;23.402;2023-05-01T12:36:21;95453.50;;;20.74;40.83
13029;BME280;6581;42.662;23.402;2023-05-01T12:38:55;95448.06;;;20.42;42.33
13029;BME280;6581;42.662;23.402;2023-05-01T12:41:35;95450.06;;;20.38;44.74
13029;BME280;6581;42.662;23.402;2023-05-01T12:44:14;95455.94;;;20.69;41.79
13029;BME280;6581;42.662;23.402;2023-05-01T12:46:42;95443.75;;;20.45;43.31
13029;BME280;6581;42.662;23.402;2023-05-01T12:49:15;95450.72;;;20.22;43.50
13029;BME280;6581;42.662;23.402;2023-05-01T12:51:45;95443.06;;;20.41;41.94
13029;BME280;6581;42.662;23.402;2023-05-01T12:54:18;95441.94;;;20.58;41.35
13029;BME280;6581;42.662;23.402;2023-05-01T12:56:46;95440.53;;;20.69;40.72
13029;BME280;6581;42.662;23.402;2023-05-01T12:59:22;95445.34;;;20.78;40.80
13029;BME280;6581;42.662;23.402;2023-05-01T13:01:56;95449.47;;;20.83;39.35
13029;BME280;6581;42.662;23.402;2023-05-01T13:04:24;95450.91;;;20.71;42.91
13029;BME280;6581;42.662;23.402;2023-05-01T13:06:51;95438.34;;;20.64;44.44
13029;BME280;6581;42.662;23.402;2023-05-01T13:09:20;95446.72;;;20.50;43.33
13029;BME280;6581;42.662;23.402;2023-05-01T13:12:01;95454.00;;;20.33;44.28
13029;BME280;6581;42.662;23.402;2023-05-01T13:14:36;95457.03;;;19.96;44.12
13029;BME280;6581;42.662;23.402;2023-05-01T13:17:05;95466.81;;;19.86;43.64
13029;BME280;6581;42.662;23.402;2023-05-01T13:19:33;95455.97;;;19.90;44.25
13029;BME280;6581;42.662;23.402;2023-05-01T13:22:00;95451.78;;;20.09;42.33
13029;BME280;6581;42.662;23.402;2023-05-01T13:24:35;95458.00;;;20.25;43.31
13029;BME280;6581;42.662;23.402;2023-05-01T13:27:04;95464.47;;;20.08;43.27
13029;BME280;6581;42.662;23.402;2023-05-01T13:29:32;95478.63;;;19.69;42.74